Time;durP1;ratioP1;P1;durP2;ratioP2;P2;SDS_P1;SDS_P2;PMS_P1;PMS_P2;Temp;Humidity;BMP_temperature;BMP_pressure;BME280_temperature;BME280_humidity;BME280_pressure;Samples;Min_cycle;Max_cycle;Signal;HPM_P1;HPM_P2
2023/03/25 00:01:12;;;;;;;20.88;14.63;;;;;;;11.53;100.00;97546.94;5138124;28;20047;-67
2023/03/25 00:03:40;;;;;;;21.45;13.98;;;;;;;11.44;100.00;97551.34;5137822;28;20047;-60
2023/03/25 00:06:08;;;;;;;20.00;13.57;;;;;;;11.35;100.00;97540.84;5138067;27;20055;-68
2023/03/25 00:08:34;;;;;;;19.73;13.32;;;;;;;11.40;100.00;97532.19;5137565;28;20457;-66
2023/03/25 00:11:02;;;;;;;20.55;13.45;;;;;;;11.65;100.00;97531.09;5137695;27;20047;-61
2023/03/25 00:13:30;;;;;;;18.40;12.90;;;;;;;11.52;100.00;97537.13;5137038;28;20051;-65
2023/03/25 00:15:57;;;;;;;17.90;12.13;;;;;;;11.48;100.00;97541.88;5137672;28;20055;-67
2023/03/25 00:18:25;;;;;;;16.98;11.95;;;;;;;11.61;100.00;97544.88;5137885;28;20134;-65
2023/03/25 00:20:52;;;;;;;22.45;13.18;;;;;;;11.64;100.00;97549.53;5137656;28;20395;-62
2023/03/25 00:23:19;;;;;;;19.60;12.45;;;;;;;11.47;100.00;97550.53;5137816;28;20047;-60
2023/03/25 00:25:46;;;;;;;13.45;10.75;;;;;;;11.40;100.00;97562.38;5137402;28;20396;-64
2023/03/25 00:28:12;;;;;;;18.13;11.02;;;;;;;11.42;100.00;97567.44;5138023;28;20050;-64
2023/03/25 00:30:39;;;;;;;15.38;9.85;;;;;;;11.39;100.00;97562.75;5137461;28;20098;-64
2023/03/25 00:33:06;;;;;;;15.77;10.80;;;;;;;11.47;100.00;97562.28;5137325;28;20047;-68
2023/03/25 00:35:32;;;;;;;16.42;11.07;;;;;;;11.42;100.00;97575.66;5137084;27;20125;-64
2023/03/25 00:38:00;;;;;;;16.35;9.60;;;;;;;11.34;100.00;97569.50;5137200;28;20051;-64
2023/03/25 00:40:27;;;;;;;12.07;9.07;;;;;;;11.42;100.00;97581.16;5137229;28;20399;-59
2023/03/25 00:42:53;;;;;;;12.45;9.48;;;;;;;11.56;100.00;97581.00;5137175;28;20134;-57
2023/03/25 00:45:19;;;;;;;11.93;8.23;;;;;;;11.62;100.00;97573.09;5137455;28;20047;-60
2023/03/25 00:47:45;;;;;;;12.45;8.95;;;;;;;11.37;100.00;97581.63;5137266;28;20336;-66
2023/03/25 00:50:12;;;;;;;12.95;8.50;;;;;;;11.50;100.00;97571.66;5137487;28;20046;-68
2023/03/25 00:52:38;;;;;;;11.43;8.75;;;;;;;11.62;100.00;97590.34;5137405;28;20138;-64
2023/03/25 00:55:05;;;;;;;11.38;8.95;;;;;;;11.49;100.00;97598.31;5137508;28;20047;-59
2023/03/25 00:57:31;;;;;;;13.73;8.10;;;;;;;11.52;100.00;97589.25;5136995;28;20491;-67
2023/03/25 00:59:57;;;;;;;11.75;8.70;;;;;;;11.32;100.00;97591.06;5137418;28;20089;-69
2023/03/25 01:02:23;;;;;;;14.30;10.52;;;;;;;11.37;100.00;97573.38;5136954;28;20103;-68
2023/03/25 01:04:49;;;;;;;13.05;8.98;;;;;;;11.17;100.00;97567.72;5137317;27;20134;-62
2023/03/25 01:07:16;;;;;;;11.18;8.98;;;;;;;11.16;100.00;97547.75;5137085;28;20055;-65
2023/03/25 01:09:45;;;;;;;11.10;8.07;;;;;;;11.18;100.00;97539.88;5137075;28;20047;-66
2023/03/25 01:12:11;;;;;;;9.43;7.85;;;;;;;11.36;100.00;97534.16;5136848;28;20134;-58
2023/03/25 01:14:37;;;;;;;11.25;8.85;;;;;;;11.55;100.00;97546.50;5136818;28;20047;-60
2023/03/25 01:17:03;;;;;;;12.25;10.13;;;;;;;11.48;100.00;97571.28;5137037;28;20107;-59
2023/03/25 01:19:29;;;;;;;11.20;9.38;;;;;;;11.58;100.00;97578.63;5136873;28;20086;-64
2023/03/25 01:21:55;;;;;;;12.68;9.32;;;;;;;11.40;100.00;97578.06;5137094;28;20138;-68
2023/03/25 01:24:22;;;;;;;11.75;8.55;;;;;;;11.24;100.00;97578.63;5139332;27;20199;-64
2023/03/25 01:26:48;;;;;;;14.88;9.32;;;;;;;11.52;100.00;97570.06;5140646;28;20215;-62
2023/03/25 01:29:16;;;;;;;10.82;8.60;;;;;;;11.43;100.00;97568.97;5140164;28;20084;-62
2023/03/25 01:31:42;;;;;;;13.55;9.57;;;;;;;11.36;100.00;97566.31;5140718;28;20137;-67
2023/03/25 01:34:08;;;;;;;14.27;8.50;;;;;;;11.47;100.00;97567.78;5140281;28;20043;-67
2023/03/25 01:36:36;;;;;;;11.15;8.23;;;;;;;11.62;100.00;97576.59;5140156;27;20437;-68
2023/03/25 01:39:04;;;;;;;12.15;8.20;;;;;;;11.57;100.00;97587.28;5140064;28;20050;-66
2023/03/25 01:41:32;;;;;;;10.45;7.25;;;;;;;11.68;100.00;97593.41;5140137;28;20043;-67
2023/03/25 01:44:06;;;;;;;12.50;8.77;;;;;;;11.48;100.00;97602.25;5140291;28;20115;-65
2023/03/25 01:46:32;;;;;;;11.50;8.27;;;;;;;11.61;100.00;97618.97;5140099;28;20305;-61
2023/03/25 01:49:00;;;;;;;11.68;8.55;;;;;;;11.75;100.00;97627.03;5140302;28;20072;-60
2023/03/25 01:51:30;;;;;;;11.50;8.00;;;;;;;11.44;100.00;97623.47;5139972;28;20340;-65
2023/03/25 01:53:56;;;;;;;13.18;8.85;;;;;;;11.64;100.00;97612.66;5140470;28;20047;-64
2023/03/25 01:56:29;;;;;;;12.15;7.80;;;;;;;11.50;100.00;97632.81;5140048;28;20058;-65
2023/03/25 01:58:57;;;;;;;15.70;8.20;;;;;;;11.46;100.00;97626.59;5140219;28;20069;-66
2023/03/25 02:01:25;;;;;;;13.65;8.18;;;;;;;11.67;100.00;97619.31;5140227;28;20376;-60
2023/03/25 02:03:53;;;;;;;10.35;7.95;;;;;;;11.78;100.00;97633.69;5139985;28;20111;-67
2023/03/25 02:06:25;;;;;;;12.88;7.82;;;;;;;11.88;100.00;97654.00;5139861;27;20083;-67
2023/03/25 02:08:53;;;;;;;12.43;8.50;;;;;;;11.60;100.00;97675.06;5139683;28;20115;-61
2023/03/25 02:11:20;;;;;;;14.85;9.32;;;;;;;11.89;100.00;97672.03;5139902;28;20047;-60
2023/03/25 02:13:46;;;;;;;13.07;8.60;;;;;;;11.67;100.00;97685.19;5139707;28;20412;-66
2023/03/25 02:16:25;;;;;;;11.60;8.38;;;;;;;11.56;100.00;97655.09;5139729;28;20461;-63
2023/03/25 02:19:05;;;;;;;13.15;8.40;;;;;;;11.57;100.00;97653.94;5139505;28;20416;-65
2023/03/25 02:22:02;;;;;;;11.50;8.50;;;;;;;11.93;100.00;97659.06;5139598;28;20363;-66
2023/03/25 02:25:05;;;;;;;11.45;7.57;;;;;;;11.24;100.00;97733.00;5139639;28;20427;-62
2023/03/25 02:27:47;;;;;;;9.20;2.97;;;;;;;10.98;100.00;97870.69;5108997;28;20131;-65
2023/03/25 02:30:43;;;;;;;3.38;1.20;;;;;;;10.33;100.00;98095.53;5139654;28;20133;-58
2023/03/25 02:33:35;;;;;;;6.38;1.55;;;;;;;10.12;100.00;98123.63;5139527;28;20184;-56
2023/03/25 02:36:32;;;;;;;5.38;1.35;;;;;;;10.06;100.00;98102.47;5138437;27;20085;-61
2023/03/25 02:39:02;;;;;;;3.78;1.25;;;;;;;9.98;100.00;98092.69;5139511;28;20057;-62
2023/03/25 02:41:37;;;;;;;11.27;2.42;;;;;;;10.01;100.00;98089.19;5139084;28;20047;-59
2023/03/25 02:44:08;;;;;;;4.25;1.65;;;;;;;9.68;100.00;98095.72;5139209;28;20413;-67
2023/03/25 02:46:35;;;;;;;3.55;1.30;;;;;;;9.22;100.00;98113.44;5139246;28;20047;-60
2023/03/25 02:49:07;;;;;;;6.15;1.10;;;;;;;9.63;100.00;98114.06;5139155;28;20103;-68
2023/03/25 02:51:37;;;;;;;6.40;1.50;;;;;;;9.70;100.00;98107.06;5139198;28;20137;-68
2023/03/25 02:54:08;;;;;;;4.20;1.40;;;;;;;9.74;100.00;98102.38;5138997;28;20047;-67
2023/03/25 02:56:36;;;;;;;3.97;1.25;;;;;;;9.72;100.00;98101.97;5139145;28;20055;-66
2023/03/25 02:59:04;;;;;;;3.88;1.35;;;;;;;9.59;100.00;98093.31;5138902;28;20061;-68
2023/03/25 03:01:33;;;;;;;8.05;1.63;;;;;;;9.64;100.00;98093.75;5139165;28;20123;-68
2023/03/25 03:03:59;;;;;;;5.55;1.40;;;;;;;9.56;100.00;98102.28;5138707;28;20050;-63
2023/03/25 03:06:27;;;;;;;4.95;1.65;;;;;;;9.56;100.00;98097.63;5139017;27;20047;-63
2023/03/25 03:09:05;;;;;;;2.88;1.40;;;;;;;9.50;100.00;98090.16;5138839;28;20389;-62
2023/03/25 03:11:45;;;;;;;6.28;1.52;;;;;;;9.43;100.00;98090.91;5138828;28;20266;-60
2023/03/25 03:14:30;;;;;;;4.50;1.48;;;;;;;9.52;100.00;98085.09;5138879;28;20143;-61
2023/03/25 03:17:02;;;;;;;;;;;;;;;9.49;100.00;98092.09;5141167;28;20061;-59
2023/03/25 03:19:37;;;;;;;3.72;1.50;;;;;;;9.48;100.00;98095.22;5142256;28;20208;-66
2023/03/25 03:22:14;;;;;;;5.13;1.75;;;;;;;9.61;100.00;98097.25;5138487;28;20047;-66
2023/03/25 03:24:43;;;;;;;9.05;1.90;;;;;;;9.56;100.00;98102.28;5138312;28;20065;-60
2023/03/25 03:27:15;;;;;;;4.68;1.48;;;;;;;9.70;100.00;98120.75;5138684;28;20115;-61
2023/03/25 03:29:45;;;;;;;2.72;1.60;;;;;;;9.74;100.00;98114.13;5138484;28;20065;-59
2023/03/25 03:32:17;;;;;;;3.65;1.98;;;;;;;9.59;100.00;98116.00;5138618;28;20138;-65
2023/03/25 03:34:48;;;;;;;4.18;1.63;;;;;;;9.56;100.00;98089.41;5138277;27;20138;-64
2023/03/25 03:37:20;;;;;;;2.60;1.80;;;;;;;9.62;100.00;98076.13;5138455;28;20320;-61
2023/03/25 03:39:48;;;;;;;8.00;1.90;;;;;;;9.44;100.00;98084.28;5138122;28;20485;-57
2023/03/25 03:42:20;;;;;;;2.30;1.48;;;;;;;9.29;100.00;98082.63;5138528;28;20156;-61
2023/03/25 03:44:50;;;;;;;4.90;1.80;;;;;;;9.38;100.00;98066.66;5138259;28;20134;-59
2023/03/25 03:47:21;;;;;;;2.13;1.40;;;;;;;9.25;100.00;98043.53;5137012;27;20137;-65
2023/03/25 03:49:50;;;;;;;3.35;1.65;;;;;;;9.33;100.00;98026.78;5138043;28;20051;-57
2023/03/25 03:52:21;;;;;;;5.07;1.85;;;;;;;9.31;100.00;98036.53;5137897;28;20150;-64
2023/03/25 03:54:50;;;;;;;4.20;2.20;;;;;;;9.16;100.00;98031.00;5138245;28;20126;-58
2023/03/25 03:57:21;;;;;;;6.78;2.10;;;;;;;9.08;100.00;97991.09;5137738;28;20416;-60
2023/03/25 03:59:56;;;;;;;1.75;1.65;;;;;;;9.16;100.00;98000.94;5138248;28;20077;-60
2023/03/25 04:02:27;;;;;;;3.80;1.70;;;;;;;9.23;100.00;98013.84;5137770;28;20340;-63
2023/03/25 04:04:53;;;;;;;2.70;1.70;;;;;;;9.30;100.00;98024.03;5138151;27;20047;-66
2023/03/25 04:07:23;;;;;;;2.55;1.83;;;;;;;9.35;100.00;98029.13;5138235;28;20142;-58
2023/03/25 04:09:56;;;;;;;4.03;1.70;;;;;;;9.32;100.00;98027.16;5137972;28;20055;-57
2023/03/25 04:12:26;;;;;;;3.95;1.45;;;;;;;9.32;100.00;98049.81;5137998;28;20047;-63
2023/03/25 04:14:53;;;;;;;5.50;1.63;;;;;;;9.29;100.00;98063.47;5137616;28;20428;-68
2023/03/25 04:17:19;;;;;;;2.85;1.45;;;;;;;9.00;100.00;98038.72;5137783;28;20195;-60
2023/03/25 04:19:47;;;;;;;3.38;1.80;;;;;;;9.14;100.00;98016.13;5137659;28;20141;-68
2023/03/25 04:22:16;;;;;;;2.70;1.73;;;;;;;9.28;100.00;98024.41;5137709;28;20057;-63
2023/03/25 04:24:42;;;;;;;5.88;1.88;;;;;;;8.98;100.00;98010.19;5137519;28;20328;-66
2023/03/25 04:27:12;;;;;;;3.45;1.80;;;;;;;9.16;100.00;98009.13;5137810;28;20337;-66
2023/03/25 04:29:39;;;;;;;9.93;2.13;;;;;;;9.35;100.00;98018.19;5137200;28;20047;-60
2023/03/25 04:32:07;;;;;;;7.30;2.78;;;;;;;9.27;100.00;98031.06;5137566;28;20055;-66
2023/03/25 04:34:33;;;;;;;7.32;3.20;;;;;;;9.17;100.00;98016.16;5137506;27;20365;-66
2023/03/25 04:37:00;;;;;;;7.80;2.10;;;;;;;9.10;100.00;98005.19;5137331;28;20058;-59
2023/03/25 04:39:28;;;;;;;8.15;2.25;;;;;;;9.05;100.00;97991.88;5137544;28;20114;-64
2023/03/25 04:41:55;;;;;;;3.70;2.45;;;;;;;9.31;100.00;97977.16;5137314;28;20051;-64
2023/03/25 04:44:24;;;;;;;6.13;2.42;;;;;;;9.27;100.00;97990.03;5137529;28;20051;-62
2023/03/25 04:46:51;;;;;;;5.05;2.60;;;;;;;9.14;100.00;97999.75;5137171;28;20047;-58
2023/03/25 04:49:20;;;;;;;7.03;2.30;;;;;;;9.18;100.00;98000.53;5137399;28;20384;-66
2023/03/25 04:51:48;;;;;;;8.35;2.47;;;;;;;9.18;100.00;98001.31;5137003;28;20082;-62
2023/03/25 04:54:14;;;;;;;5.30;2.05;;;;;;;9.24;100.00;98006.44;5137530;28;20087;-69
2023/03/25 04:56:40;;;;;;;2.92;1.67;;;;;;;9.17;100.00;98040.00;5136813;28;20054;-58
2023/03/25 04:59:07;;;;;;;8.95;2.15;;;;;;;9.28;100.00;98054.50;5139524;27;20055;-64
2023/03/25 05:01:36;;;;;;;6.57;1.85;;;;;;;9.15;100.00;98081.38;5140785;28;20366;-68
2023/03/25 05:04:05;;;;;;;11.93;2.20;;;;;;;9.09;100.00;98110.22;5140569;28;20096;-60
2023/03/25 05:06:32;;;;;;;8.73;2.10;;;;;;;9.09;100.00;98118.44;5140838;27;20055;-67
2023/03/25 05:08:58;;;;;;;6.57;1.63;;;;;;;8.94;100.00;98138.66;5140533;28;20337;-57
2023/03/25 05:11:24;;;;;;;7.63;2.08;;;;;;;9.00;100.00;98139.88;5140873;28;20051;-64
2023/03/25 05:13:50;;;;;;;6.55;1.73;;;;;;;9.03;100.00;98138.31;5140654;28;20057;-66
2023/03/25 05:16:16;;;;;;;4.78;2.15;;;;;;;9.01;100.00;98173.44;5140373;28;20325;-63
2023/03/25 05:18:42;;;;;;;5.10;1.70;;;;;;;9.02;100.00;98185.94;5140466;28;20143;-64
2023/03/25 05:21:10;;;;;;;9.57;2.33;;;;;;;8.95;100.00;98183.94;5140616;28;20057;-60
2023/03/25 05:23:36;;;;;;;7.47;1.70;;;;;;;8.89;100.00;98182.72;5140239;28;20404;-65
2023/03/25 05:26:02;;;;;;;8.15;1.80;;;;;;;8.95;100.00;98194.88;5140518;28;20062;-66
2023/03/25 05:28:29;;;;;;;5.80;1.35;;;;;;;8.95;100.00;98209.31;5140346;28;20051;-60
2023/03/25 05:30:55;;;;;;;5.20;1.92;;;;;;;8.85;100.00;98220.16;5140357;28;20086;-60
2023/03/25 05:33:21;;;;;;;7.03;2.05;;;;;;;8.78;100.00;98211.91;5138360;28;20133;-64
2023/03/25 05:35:48;;;;;;;7.93;1.75;;;;;;;9.00;100.00;98210.94;5140206;27;20172;-64
2023/03/25 05:38:17;;;;;;;6.15;2.05;;;;;;;9.12;100.00;98216.09;5140455;28;20043;-60
2023/03/25 05:40:45;;;;;;;6.80;2.05;;;;;;;9.09;100.00;98219.59;5140040;28;20047;-61
2023/03/25 05:43:12;;;;;;;7.28;1.58;;;;;;;9.12;100.00;98235.25;5140425;28;20058;-61
2023/03/25 05:45:38;;;;;;;6.50;2.13;;;;;;;9.07;100.00;98224.66;5139934;28;20061;-60
2023/03/25 05:48:04;;;;;;;5.78;1.55;;;;;;;9.10;100.00;98225.88;5140370;28;20133;-64
2023/03/25 05:50:30;;;;;;;3.50;1.33;;;;;;;9.21;100.00;98229.47;5139929;28;20051;-61
2023/03/25 05:52:58;;;;;;;6.57;1.50;;;;;;;9.14;100.00;98227.47;5140308;28;20090;-58
2023/03/25 05:55:26;;;;;;;5.78;1.83;;;;;;;9.39;100.00;98229.59;5140054;28;20149;-59
2023/03/25 05:57:52;;;;;;;3.88;1.77;;;;;;;9.51;100.00;98239.47;5139865;28;20047;-60
2023/03/25 06:00:20;;;;;;;6.30;1.50;;;;;;;9.09;100.00;98227.78;5140047;28;20054;-63
2023/03/25 06:02:48;;;;;;;8.65;1.40;;;;;;;9.33;100.00;98226.44;5139938;28;20339;-65
2023/03/25 06:05:16;;;;;;;4.97;1.90;;;;;;;9.53;100.00;98237.94;5139971;27;20050;-63
2023/03/25 06:07:42;;;;;;;6.43;1.60;;;;;;;9.32;100.00;98232.28;5139717;28;20146;-57
2023/03/25 06:10:09;;;;;;;6.70;1.50;;;;;;;9.39;100.00;98211.22;5139077;27;20057;-65
2023/03/25 06:12:37;;;;;;;8.07;1.80;;;;;;;9.08;100.00;98192.66;5139749;28;20151;-67
2023/03/25 06:15:05;;;;;;;4.70;1.42;;;;;;;9.35;100.00;98210.44;5139905;28;20073;-66
2023/03/25 06:17:33;;;;;;;5.10;1.42;;;;;;;9.38;100.00;98214.38;5139320;28;20382;-66
2023/03/25 06:20:00;;;;;;;10.55;1.60;;;;;;;9.39;100.00;98197.56;5139944;28;20325;-65
2023/03/25 06:22:26;;;;;;;8.20;1.85;;;;;;;9.36;100.00;98176.47;5139609;28;20043;-62
2023/03/25 06:24:52;;;;;;;10.32;1.92;;;;;;;9.45;100.00;98211.69;5139535;28;20066;-68
2023/03/25 06:27:18;;;;;;;7.45;2.00;;;;;;;9.49;100.00;98228.88;5139537;28;20139;-64
2023/03/25 06:29:46;;;;;;;3.22;1.40;;;;;;;9.45;100.00;98258.19;5139518;28;20051;-63
2023/03/25 06:32:13;;;;;;;8.00;1.60;;;;;;;9.63;100.00;98250.91;5139533;28;20479;-64
2023/03/25 06:34:41;;;;;;;10.70;2.47;;;;;;;9.88;100.00;98209.19;5143049;27;20051;-60
2023/03/25 06:37:08;;;;;;;7.60;1.98;;;;;;;9.96;100.00;98163.47;5141287;28;20070;-58
2023/03/25 06:39:36;;;;;;;5.95;1.90;;;;;;;10.05;100.00;98129.09;5139144;28;20395;-59
2023/03/25 06:42:04;;;;;;;7.90;2.25;;;;;;;10.66;100.00;98142.94;5139422;28;20047;-64
2023/03/25 06:44:30;;;;;;;9.77;2.20;;;;;;;10.64;100.00;97985.56;5138991;28;20051;-68
2023/03/25 06:46:56;;;;;;;12.45;2.50;;;;;;;10.82;100.00;97769.72;5139550;28;20080;-61
2023/03/25 06:49:22;;;;;;;6.47;1.45;;;;;;;11.08;100.00;97656.72;5139128;28;20057;-64
2023/03/25 06:51:48;;;;;;;6.93;1.80;;;;;;;10.36;100.00;97461.16;5139328;28;20051;-62
2023/03/25 06:54:14;;;;;;;6.03;2.28;;;;;;;11.17;100.00;97744.03;5139075;28;20138;-60
2023/03/25 06:56:40;;;;;;;12.30;1.90;;;;;;;11.21;100.00;97691.88;5139223;28;20455;-63
2023/03/25 06:59:06;;;;;;;8.50;1.63;;;;;;;11.17;100.00;97576.72;5139056;28;20053;-66
2023/03/25 07:01:32;;;;;;;10.07;1.55;;;;;;;11.39;100.00;97352.28;5138882;28;20047;-67
2023/03/25 07:03:59;;;;;;;6.47;2.13;;;;;;;11.25;100.00;97231.78;5139061;28;20104;-64
2023/03/25 07:06:25;;;;;;;5.68;2.40;;;;;;;11.32;100.00;97270.84;5138624;27;20059;-66
2023/03/25 07:08:51;;;;;;;10.48;2.10;;;;;;;11.00;100.00;97282.31;5138863;28;20043;-61
2023/03/25 07:11:22;;;;;;;10.43;2.15;;;;;;;11.08;100.00;97236.38;5138517;28;20047;-67
2023/03/25 07:13:52;;;;;;;9.35;1.58;;;;;;;11.33;100.00;97252.44;5138639;28;20166;-58
2023/03/25 07:16:18;;;;;;;9.77;2.05;;;;;;;11.22;100.00;97238.88;5138347;28;20043;-61
2023/03/25 07:18:44;;;;;;;10.50;1.95;;;;;;;11.12;100.00;97197.91;5138331;28;20125;-64
2023/03/25 07:21:11;;;;;;;13.65;2.85;;;;;;;10.99;100.00;97137.41;5138109;27;20089;-66
2023/03/25 07:23:37;;;;;;;11.75;2.25;;;;;;;11.17;100.00;97123.41;5138503;28;20138;-64
2023/03/25 07:26:03;;;;;;;6.68;1.55;;;;;;;11.53;100.00;97197.63;5138380;28;20047;-66
2023/03/25 07:28:28;;;;;;;6.03;1.98;;;;;;;11.50;100.00;97088.72;5138104;28;20134;-67
2023/03/25 07:30:54;;;;;;;12.05;2.20;;;;;;;11.39;100.00;97008.56;5138577;28;20147;-63
2023/03/25 07:33:20;;;;;;;6.32;1.80;;;;;;;11.48;100.00;96987.59;5138156;28;20051;-61
2023/03/25 07:35:46;;;;;;;14.13;2.30;;;;;;;11.68;100.00;97012.28;5138487;27;20428;-61
2023/03/25 07:38:13;;;;;;;13.25;2.35;;;;;;;11.89;100.00;97010.28;5138100;28;20090;-69
2023/03/25 07:40:39;;;;;;;8.98;2.88;;;;;;;11.94;100.00;97013.31;5138482;28;20427;-67
2023/03/25 07:43:05;;;;;;;6.95;1.55;;;;;;;12.08;100.00;97009.47;5138103;28;20059;-62
2023/03/25 07:45:31;;;;;;;11.23;1.92;;;;;;;12.13;100.00;97030.16;5138135;28;20097;-67
2023/03/25 07:47:59;;;;;;;12.13;1.88;;;;;;;12.27;100.00;96903.47;5138447;28;20051;-66
2023/03/25 07:50:25;;;;;;;7.57;2.20;;;;;;;12.53;100.00;96889.84;5138168;28;20058;-60
2023/03/25 07:52:51;;;;;;;11.27;1.77;;;;;;;12.83;100.00;96885.91;5138189;28;20047;-63
2023/03/25 07:55:18;;;;;;;10.15;1.83;;;;;;;13.07;100.00;96862.44;5137736;28;20507;-66
2023/03/25 07:57:44;;;;;;;4.88;1.90;;;;;;;13.00;100.00;96857.16;5138033;28;20091;-64
2023/03/25 08:00:11;;;;;;;5.00;1.20;;;;;;;13.50;100.00;96858.44;5137601;28;20417;-64
2023/03/25 08:02:38;;;;;;;7.50;2.03;;;;;;;13.71;100.00;96876.28;5138100;28;20130;-68
2023/03/25 08:05:04;;;;;;;8.73;1.75;;;;;;;13.56;100.00;96933.75;5137534;27;20340;-66
2023/03/25 08:07:30;;;;;;;6.70;1.52;;;;;;;13.37;100.00;96965.00;5138204;28;20059;-60
2023/03/25 08:09:56;;;;;;;11.57;2.08;;;;;;;13.93;100.00;96956.25;5137607;28;20051;-68
2023/03/25 08:12:23;;;;;;;10.25;1.90;;;;;;;13.79;100.00;96945.66;5138100;28;20104;-68
2023/03/25 08:14:49;;;;;;;4.15;1.63;;;;;;;13.52;100.00;96924.06;5138141;28;20145;-67
2023/03/25 08:17:15;;;;;;;4.97;1.70;;;;;;;13.95;100.00;96923.50;5137626;28;20050;-59
2023/03/25 08:19:41;;;;;;;7.38;2.13;;;;;;;14.03;100.00;96911.06;5137852;28;20282;-60
2023/03/25 08:22:07;;;;;;;10.05;2.30;;;;;;;14.29;100.00;96966.91;5137815;28;20119;-64
2023/03/25 08:24:33;;;;;;;11.15;2.30;;;;;;;14.18;100.00;97049.16;5137651;28;20146;-68
2023/03/25 08:26:59;;;;;;;9.20;1.92;;;;;;;14.76;100.00;97087.53;5137323;28;20055;-68
2023/03/25 08:29:26;;;;;;;8.15;1.95;;;;;;;14.60;100.00;97164.88;5137555;28;20054;-68
2023/03/25 08:31:52;;;;;;;7.72;1.88;;;;;;;14.71;100.00;97142.47;5137176;28;20373;-65
2023/03/25 08:34:20;;;;;;;13.30;2.70;;;;;;;14.91;100.00;97153.28;5136545;27;20043;-67
2023/03/25 08:36:46;;;;;;;6.85;1.98;;;;;;;14.38;100.00;97192.28;5137000;28;20051;-65
2023/03/25 08:39:15;;;;;;;8.05;2.92;;;;;;;14.49;100.00;97214.78;5137505;28;20133;-68
2023/03/25 08:41:43;;;;;;;4.15;1.45;;;;;;;14.66;100.00;97171.41;5136814;28;20135;-63
2023/03/25 08:44:09;;;;;;;7.40;2.17;;;;;;;14.90;100.00;97207.69;5137138;28;20051;-67
2023/03/25 08:46:36;;;;;;;7.95;1.98;;;;;;;15.85;100.00;97287.13;5137216;28;20051;-64
2023/03/25 08:49:02;;;;;;;5.40;1.88;;;;;;;16.09;100.00;97356.59;5137221;28;20055;-67
2023/03/25 08:51:29;;;;;;;7.55;1.73;;;;;;;16.19;100.00;97355.47;5137199;28;20119;-67
2023/03/25 08:53:55;;;;;;;7.05;2.65;;;;;;;16.10;100.00;97339.59;5136987;28;20051;-68
2023/03/25 08:56:21;;;;;;;6.40;2.15;;;;;;;16.08;100.00;97346.78;5137179;28;20420;-67
2023/03/25 08:58:46;;;;;;;4.85;1.75;;;;;;;15.89;100.00;97417.66;5137093;28;20063;-69
2023/03/25 09:01:12;;;;;;;10.38;1.90;;;;;;;16.48;100.00;97418.91;5137202;28;20138;-68
2023/03/25 09:03:39;;;;;;;8.98;2.38;;;;;;;16.90;100.00;97432.53;5136821;28;20426;-65
2023/03/25 09:06:06;;;;;;;8.15;2.00;;;;;;;17.07;100.00;97416.50;5137073;27;20361;-62
2023/03/25 09:08:32;;;;;;;10.25;2.30;;;;;;;16.84;100.00;97439.84;5136902;28;20058;-61
2023/03/25 09:10:58;;;;;;;6.82;2.00;;;;;;;16.28;100.00;97421.94;5137139;28;20313;-63
2023/03/25 09:13:24;;;;;;;8.43;2.03;;;;;;;16.16;100.00;97437.34;5136806;28;20133;-68
2023/03/25 09:15:50;;;;;;;6.40;1.95;;;;;;;16.22;100.00;97462.41;5136806;28;20054;-62
2023/03/25 09:18:16;;;;;;;12.13;3.03;;;;;;;15.78;100.00;97462.19;5136933;28;20081;-67
2023/03/25 09:20:46;;;;;;;7.82;1.90;;;;;;;16.04;100.00;97473.28;5136857;28;20401;-67
2023/03/25 09:23:12;;;;;;;5.20;1.77;;;;;;;16.26;100.00;97482.44;5136984;28;20051;-68
2023/03/25 09:25:38;;;;;;;8.40;1.60;;;;;;;16.44;100.00;97457.75;5136709;28;20043;-69
2023/03/25 09:28:04;;;;;;;6.78;1.95;;;;;;;15.68;100.00;97477.13;5136968;28;20154;-64
2023/03/25 09:30:30;;;;;;;9.65;1.63;;;;;;;15.68;100.00;97450.25;5136504;28;20047;-66
2023/03/25 09:32:59;;;;;;;8.45;1.77;;;;;;;15.84;100.00;97441.09;5136937;28;20107;-64
2023/03/25 09:35:25;;;;;;;7.90;2.00;;;;;;;15.49;100.00;97451.19;5136434;27;20420;-68
2023/03/25 09:37:55;;;;;;;9.75;1.95;;;;;;;15.52;100.00;97470.41;5136923;28;20051;-62
2023/03/25 09:40:21;;;;;;;7.25;1.50;;;;;;;15.88;100.00;97472.16;5136717;28;20047;-66
2023/03/25 09:43:09;;;;;;;6.20;2.33;;;;;;;16.10;100.00;97471.50;5136730;28;20115;-61
2023/03/25 09:45:39;;;;;;;6.63;2.40;;;;;;;15.97;100.00;97494.38;5140268;27;20146;-67
2023/03/25 09:48:27;;;;;;;5.97;1.95;;;;;;;16.38;100.00;97487.19;5140768;28;20397;-63
2023/03/25 09:50:53;;;;;;;7.13;2.53;;;;;;;16.66;100.00;97488.25;5141105;28;20147;-66
2023/03/25 09:53:28;;;;;;;6.95;1.80;;;;;;;16.64;100.00;97481.59;5139880;28;20138;-62
2023/03/25 09:55:54;;;;;;;10.32;3.72;;;;;;;16.12;98.67;97499.47;5140486;28;20134;-62
2023/03/25 09:58:35;;;;;;;6.28;1.75;;;;;;;16.09;100.00;97500.34;5139637;28;20054;-62
2023/03/25 10:01:11;;;;;;;5.65;1.60;;;;;;;16.02;100.00;97504.09;5139965;28;20140;-63
2023/03/25 10:03:46;;;;;;;4.60;1.60;;;;;;;16.25;100.00;97505.75;5140067;28;20055;-67
2023/03/25 10:06:17;;;;;;;10.68;2.22;;;;;;;16.03;100.00;97511.19;5139571;27;20356;-62
2023/03/25 10:08:53;;;;;;;6.00;2.13;;;;;;;16.16;100.00;97502.88;5139937;28;20114;-60
2023/03/25 10:11:27;;;;;;;10.25;2.20;;;;;;;16.85;100.00;97500.28;5139672;28;20047;-66
2023/03/25 10:14:01;;;;;;;7.13;2.00;;;;;;;16.75;100.00;97511.72;5140080;28;20043;-58
2023/03/25 10:16:36;;;;;;;6.30;1.75;;;;;;;16.74;98.30;97510.13;5139889;28;20091;-63
2023/03/25 10:19:18;;;;;;;5.47;1.58;;;;;;;16.48;100.00;97505.41;5139547;28;20051;-68
2023/03/25 10:21:50;;;;;;;9.95;2.10;;;;;;;16.16;100.00;97497.34;5139764;28;20107;-63
2023/03/25 10:24:21;;;;;;;4.30;1.85;;;;;;;16.24;100.00;97496.69;5139429;28;20051;-68
2023/03/25 10:26:55;;;;;;;6.50;1.83;;;;;;;16.04;100.00;97468.53;5139747;28;20073;-67
2023/03/25 10:29:31;;;;;;;5.37;1.57;;;;;;;15.95;100.00;97474.69;5139257;28;20138;-67
2023/03/25 10:32:00;;;;;;;5.13;1.80;;;;;;;16.39;100.00;97463.84;5139115;28;20162;-68
2023/03/25 10:34:35;;;;;;;7.72;2.22;;;;;;;16.01;100.00;97485.97;5139316;27;20150;-61
2023/03/25 10:37:03;;;;;;;5.32;1.55;;;;;;;15.94;100.00;97484.22;5139050;28;20047;-61
2023/03/25 10:39:36;;;;;;;12.68;2.08;;;;;;;16.24;95.86;97490.41;5139034;28;20053;-62
2023/03/25 10:42:17;;;;;;;9.88;2.00;;;;;;;16.56;94.27;97491.34;5138941;28;20051;-63
2023/03/25 10:44:44;;;;;;;5.43;1.45;;;;;;;16.82;94.50;97492.88;5139469;28;20051;-68
2023/03/25 10:47:15;;;;;;;3.85;1.75;;;;;;;16.62;90.69;97500.63;5139034;28;20119;-68
2023/03/25 10:49:42;;;;;;;8.32;1.88;;;;;;;16.97;87.82;97497.94;5138934;28;20104;-68
2023/03/25 10:52:09;;;;;;;8.52;2.47;;;;;;;17.22;90.00;97488.72;5138883;28;20103;-67
2023/03/25 10:54:39;;;;;;;5.45;2.35;;;;;;;17.28;89.91;97500.78;5139265;28;20408;-63
2023/03/25 10:57:08;;;;;;;4.72;1.90;;;;;;;16.96;93.33;97494.41;5138329;27;20342;-65
2023/03/25 10:59:42;;;;;;;7.18;1.80;;;;;;;16.83;94.20;97482.59;5138944;28;20138;-63
2023/03/25 11:02:12;;;;;;;;;;;;;;;16.74;94.67;97477.72;5139346;28;20199;-62
2023/03/25 11:04:42;;;;;;;6.10;2.20;;;;;;;16.91;87.88;97489.41;5138610;27;20284;-61
2023/03/25 11:07:15;;;;;;;9.02;2.17;;;;;;;16.89;92.07;97487.09;5139046;28;20456;-67
2023/03/25 11:09:42;;;;;;;6.10;1.83;;;;;;;16.91;87.52;97489.41;5138777;28;20187;-61
2023/03/25 11:12:09;;;;;;;6.60;1.90;;;;;;;17.06;87.13;97486.91;5138968;28;20047;-65
2023/03/25 11:14:38;;;;;;;6.78;2.20;;;;;;;17.20;94.70;97474.59;5138402;28;20082;-65
2023/03/25 11:17:10;;;;;;;4.57;1.85;;;;;;;16.98;86.14;97486.41;5138836;28;20055;-67
2023/03/25 11:19:41;;;;;;;10.90;1.92;;;;;;;16.89;80.78;97509.25;5138671;28;20311;-63
2023/03/25 11:22:12;;;;;;;4.68;1.83;;;;;;;16.47;82.47;97501.09;5138384;28;20043;-65
2023/03/25 11:24:42;;;;;;;2.90;1.40;;;;;;;16.54;84.59;97489.03;5138735;28;20048;-65
2023/03/25 11:27:10;;;;;;;8.30;1.70;;;;;;;16.35;84.30;97488.06;5138434;28;20055;-60
2023/03/25 11:29:37;;;;;;;6.35;1.80;;;;;;;15.94;83.37;97484.22;5138833;28;20058;-65
2023/03/25 11:32:12;;;;;;;4.40;1.40;;;;;;;16.28;84.97;97495.81;5138379;28;20134;-64
2023/03/25 11:34:40;;;;;;;6.05;1.85;;;;;;;16.27;89.12;97483.22;5138654;27;20142;-66